Time;durP1;ratioP1;P1;durP2;ratioP2;P2;SDS_P1;SDS_P2;PMS_P1;PMS_P2;Temp;Humidity;BMP_temperature;BMP_pressure;BME280_temperature;BME280_humidity;BME280_pressure;Samples;Min_cycle;Max_cycle;Signal;HPM_P1;HPM_P2
2023/12/15 00:01:22;;;;;;;7.73;3.30;;;5.90;98.00;;;;;;4972933;28;20464;-71
2023/12/15 00:03:49;;;;;;;7.93;3.60;;;5.80;98.00;;;;;;4973968;28;20453;-70
2023/12/15 00:06:17;;;;;;;7.07;3.43;;;5.80;98.00;;;;;;4977104;28;20462;-70
2023/12/15 00:08:44;;;;;;;9.90;3.90;;;5.80;98.00;;;;;;4976836;28;20455;-70
2023/12/15 00:11:11;;;;;;;8.80;3.40;;;5.70;98.00;;;;;;4976626;28;20864;-70
2023/12/15 00:13:38;;;;;;;8.40;3.80;;;5.70;98.00;;;;;;4976633;28;20552;-70
2023/12/15 00:16:06;;;;;;;5.83;3.10;;;5.70;98.00;;;;;;4976711;28;20492;-70
2023/12/15 00:18:34;;;;;;;7.07;3.37;;;5.60;98.00;;;;;;4976746;28;20469;-70
2023/12/15 00:21:01;;;;;;;7.27;3.30;;;5.60;98.00;;;;;;4976025;28;20468;-70
2023/12/15 00:23:30;;;;;;;9.63;3.70;;;5.60;98.00;;;;;;4976543;28;20496;-70
2023/12/15 00:25:57;;;;;;;10.43;4.70;;;5.50;98.00;;;;;;4976363;28;20469;-70
2023/12/15 00:28:24;;;;;;;8.80;3.50;;;5.50;98.00;;;;;;4975201;28;20461;-71
2023/12/15 00:30:51;;;;;;;8.40;3.70;;;5.40;98.00;;;;;;4976426;28;20943;-70
2023/12/15 00:33:18;;;;;;;8.13;3.93;;;5.50;98.00;;;;;;4976384;28;20782;-70
2023/12/15 00:35:46;;;;;;;11.00;3.30;;;5.70;98.00;;;;;;4975184;28;20495;-70
2023/12/15 00:38:13;;;;;;;8.30;3.90;;;5.80;98.00;;;;;;4976128;28;20548;-70
2023/12/15 00:40:41;;;;;;;12.97;3.80;;;5.80;98.00;;;;;;4976346;28;20530;-70
2023/12/15 00:43:08;;;;;;;8.97;3.70;;;5.80;98.00;;;;;;4976149;28;20474;-71
2023/12/15 00:45:35;;;;;;;8.67;4.03;;;5.90;98.00;;;;;;4976164;28;20480;-69
2023/12/15 00:48:02;;;;;;;8.20;3.70;;;6.00;98.00;;;;;;4975560;28;20456;-71
2023/12/15 00:50:29;;;;;;;10.23;3.93;;;6.00;98.00;;;;;;4975742;28;20463;-70
2023/12/15 00:52:57;;;;;;;8.73;3.73;;;5.80;98.00;;;;;;4975458;28;20462;-70
2023/12/15 00:55:24;;;;;;;11.10;4.93;;;5.80;98.00;;;;;;4975863;28;20517;-70
2023/12/15 00:57:55;;;;;;;10.50;4.70;;;5.70;98.00;;;;;;4974764;28;20496;-70
2023/12/15 01:00:22;;;;;;;13.67;4.60;;;5.70;98.00;;;;;;4975867;28;20465;-71
2023/12/15 01:02:49;;;;;;;8.10;4.33;;;5.80;98.00;;;;;;4975890;28;20458;-70
2023/12/15 01:05:16;;;;;;;10.10;4.10;;;5.80;98.00;;;;;;4975477;28;20453;-70
2023/12/15 01:07:43;;;;;;;9.93;4.30;;;5.80;98.00;;;;;;4975795;28;20516;-70
2023/12/15 01:10:10;;;;;;;10.70;4.60;;;5.90;98.00;;;;;;4975656;28;20997;-70
2023/12/15 01:12:38;;;;;;;10.07;4.40;;;5.90;98.00;;;;;;4975519;28;20460;-70
2023/12/15 01:15:08;;;;;;;10.73;4.40;;;5.70;98.00;;;;;;4974800;28;20455;-70
2023/12/15 01:17:35;;;;;;;10.40;4.80;;;5.70;98.00;;;;;;4974664;28;20494;-70
2023/12/15 01:20:02;;;;;;;13.70;4.87;;;5.60;98.00;;;;;;4975735;28;20477;-70
2023/12/15 01:22:29;;;;;;;10.33;4.30;;;5.60;98.00;;;;;;4974451;28;20463;-70
2023/12/15 01:24:56;;;;;;;14.03;5.30;;;5.60;98.00;;;;;;4975433;28;20967;-70
2023/12/15 01:27:23;;;;;;;8.90;4.40;;;5.60;98.00;;;;;;4975132;28;20467;-70
2023/12/15 01:29:50;;;;;;;11.40;4.03;;;5.70;98.00;;;;;;4975266;28;20563;-69
2023/12/15 01:32:19;;;;;;;11.53;4.97;;;5.70;98.00;;;;;;4975667;28;20453;-70
2023/12/15 01:34:46;;;;;;;10.70;4.20;;;5.70;98.00;;;;;;4975442;28;20462;-69
2023/12/15 01:37:14;;;;;;;12.10;4.90;;;5.80;98.00;;;;;;4975293;28;21003;-69
2023/12/15 01:39:42;;;;;;;14.87;4.30;;;5.70;98.00;;;;;;4975637;28;20463;-70
2023/12/15 01:42:11;;;;;;;15.83;4.33;;;5.70;98.00;;;;;;4975302;28;20464;-70
2023/12/15 01:44:38;;;;;;;9.77;4.63;;;5.70;98.00;;;;;;4974033;28;20456;-69
2023/12/15 01:47:04;;;;;;;10.53;4.10;;;5.60;98.00;;;;;;4974206;28;20466;-69
2023/12/15 01:49:33;;;;;;;10.77;4.20;;;5.60;98.00;;;;;;4974124;28;20533;-70
2023/12/15 01:52:00;;;;;;;10.93;4.00;;;5.50;98.00;;;;;;4974882;28;20460;-70
2023/12/15 01:54:27;;;;;;;9.17;3.73;;;5.50;98.00;;;;;;4974939;28;20460;-70
2023/12/15 01:56:54;;;;;;;8.53;3.70;;;5.60;98.00;;;;;;4974805;28;21017;-70
2023/12/15 01:59:21;;;;;;;11.70;4.10;;;5.50;98.00;;;;;;4974570;28;20461;-69
2023/12/15 02:01:48;;;;;;;10.90;3.97;;;5.50;98.00;;;;;;4974626;28;20448;-71
2023/12/15 02:04:15;;;;;;;10.70;3.70;;;5.50;98.00;;;;;;4974621;28;20947;-70
2023/12/15 02:06:43;;;;;;;9.23;4.10;;;5.50;98.00;;;;;;4974770;28;20448;-70
2023/12/15 02:09:10;;;;;;;10.07;4.17;;;5.40;98.00;;;;;;4974520;28;20469;-71
2023/12/15 02:11:37;;;;;;;11.43;4.10;;;5.50;98.00;;;;;;4974555;28;20513;-69
2023/12/15 02:14:04;;;;;;;9.53;4.13;;;5.50;98.00;;;;;;4973989;28;20466;-70
2023/12/15 02:16:31;;;;;;;8.03;3.40;;;5.50;98.00;;;;;;4974421;28;20574;-70
2023/12/15 02:18:58;;;;;;;8.40;3.50;;;5.50;98.00;;;;;;4974363;28;20455;-70
2023/12/15 02:21:25;;;;;;;12.50;3.77;;;5.60;98.00;;;;;;4973383;28;20459;-70
2023/12/15 02:23:54;;;;;;;7.80;3.27;;;5.60;98.00;;;;;;4974251;28;20986;-71
2023/12/15 02:26:21;;;;;;;10.77;4.03;;;5.60;98.00;;;;;;4973423;28;20950;-70
2023/12/15 02:28:48;;;;;;;11.47;4.50;;;5.70;98.00;;;;;;4974121;28;20479;-69
2023/12/15 02:31:15;;;;;;;8.83;3.70;;;5.60;98.00;;;;;;4974403;28;20461;-70
2023/12/15 02:33:43;;;;;;;8.50;4.10;;;5.70;98.00;;;;;;4974192;28;20942;-70
2023/12/15 02:36:18;;;;;;;9.40;4.43;;;5.80;98.00;;;;;;4973963;28;20464;-69
2023/12/15 02:38:44;;;;;;;15.63;4.83;;;5.80;98.00;;;;;;4974143;28;20464;-70
2023/12/15 02:41:14;;;;;;;11.83;4.33;;;5.80;98.00;;;;;;4973994;28;20459;-70
2023/12/15 02:43:42;;;;;;;8.83;3.63;;;5.90;98.00;;;;;;4974083;28;20520;-69
2023/12/15 02:46:09;;;;;;;14.67;4.50;;;5.80;98.00;;;;;;4973831;28;20456;-70
2023/12/15 02:48:36;;;;;;;9.37;3.70;;;5.60;98.00;;;;;;4973976;28;20870;-70
2023/12/15 02:51:04;;;;;;;13.37;4.23;;;5.70;98.00;;;;;;4973974;28;20462;-70
2023/12/15 02:53:32;;;;;;;12.10;4.50;;;5.70;98.00;;;;;;4973840;28;20463;-69
2023/12/15 02:55:59;;;;;;;14.00;4.17;;;5.50;98.00;;;;;;4973950;28;20464;-71
2023/12/15 02:58:27;;;;;;;12.33;4.60;;;5.60;98.00;;;;;;4973785;28;20484;-70
2023/12/15 03:00:56;;;;;;;9.80;3.70;;;5.70;98.00;;;;;;4973926;28;20503;-71
2023/12/15 03:03:23;;;;;;;11.60;4.10;;;5.60;98.00;;;;;;4973671;28;20472;-69
2023/12/15 03:05:50;;;;;;;11.87;4.23;;;5.70;98.00;;;;;;4973860;28;20458;-69
2023/12/15 03:08:17;;;;;;;8.60;3.90;;;5.80;98.00;;;;;;4973662;28;20826;-69
2023/12/15 03:10:44;;;;;;;8.83;3.70;;;5.80;98.00;;;;;;4973779;28;20461;-69
2023/12/15 03:13:11;;;;;;;6.03;3.37;;;5.80;98.00;;;;;;4973792;28;20979;-70
2023/12/15 03:15:40;;;;;;;14.30;3.87;;;5.80;98.00;;;;;;4973482;28;20467;-70
2023/12/15 03:18:08;;;;;;;6.93;3.70;;;6.00;98.00;;;;;;4973523;28;20981;-70
2023/12/15 03:20:35;;;;;;;12.57;3.90;;;6.00;98.00;;;;;;4973782;28;20458;-70
2023/12/15 03:23:03;;;;;;;6.23;3.23;;;6.00;98.00;;;;;;4973467;28;20458;-71
2023/12/15 03:25:30;;;;;;;7.70;3.43;;;5.90;98.00;;;;;;4973460;28;20459;-69
2023/12/15 03:27:57;;;;;;;10.43;4.10;;;5.90;98.00;;;;;;4973544;28;20586;-69
2023/12/15 03:30:24;;;;;;;8.70;3.50;;;6.00;98.00;;;;;;4973628;28;20458;-70
2023/12/15 03:32:53;;;;;;;9.90;3.40;;;5.80;98.00;;;;;;4973240;28;20457;-70
2023/12/15 03:35:20;;;;;;;11.03;3.93;;;5.70;98.00;;;;;;4973039;28;20457;-71
2023/12/15 03:37:48;;;;;;;8.77;3.33;;;5.60;98.00;;;;;;4973102;28;20495;-70
2023/12/15 03:40:15;;;;;;;8.43;3.60;;;5.60;98.00;;;;;;4973510;28;20509;-70
2023/12/15 03:42:42;;;;;;;6.83;3.30;;;5.50;98.00;;;;;;4973076;28;20462;-70
2023/12/15 03:45:10;;;;;;;10.20;3.40;;;5.50;98.00;;;;;;4973021;28;20453;-70
2023/12/15 03:47:37;;;;;;;7.73;3.50;;;5.60;98.00;;;;;;4973085;28;21000;-71
2023/12/15 03:50:07;;;;;;;6.53;3.53;;;5.60;98.00;;;;;;4971661;28;20970;-69
2023/12/15 03:52:34;;;;;;;9.57;3.60;;;5.60;98.00;;;;;;4970917;28;20458;-70
2023/12/15 03:55:01;;;;;;;8.80;3.97;;;5.60;98.00;;;;;;4971209;28;20468;-70
2023/12/15 03:57:28;;;;;;;7.37;3.43;;;5.50;98.00;;;;;;4971851;28;20496;-71
2023/12/15 03:59:55;;;;;;;6.87;3.13;;;5.50;98.00;;;;;;4972992;28;20461;-70
2023/12/15 04:02:22;;;;;;;10.97;3.83;;;5.50;98.00;;;;;;4973010;28;20462;-71
2023/12/15 04:04:49;;;;;;;7.33;3.40;;;5.50;98.00;;;;;;4972719;28;20450;-70
2023/12/15 04:07:19;;;;;;;12.00;3.60;;;5.50;98.00;;;;;;4972633;28;20456;-70
2023/12/15 04:09:46;;;;;;;8.83;3.93;;;5.50;98.00;;;;;;4972925;28;20468;-70
2023/12/15 04:12:13;;;;;;;6.73;3.40;;;5.60;98.00;;;;;;4972891;28;20455;-70
2023/12/15 04:14:41;;;;;;;7.90;3.80;;;5.60;98.00;;;;;;4972876;28;20450;-70
2023/12/15 04:17:08;;;;;;;7.30;3.23;;;5.50;98.00;;;;;;4972446;28;20491;-70
2023/12/15 04:19:35;;;;;;;8.40;3.40;;;5.50;98.00;;;;;;4972389;28;20830;-69
2023/12/15 04:22:02;;;;;;;8.60;3.73;;;5.50;98.00;;;;;;4972667;28;20450;-70
2023/12/15 04:24:31;;;;;;;6.53;3.37;;;5.50;98.00;;;;;;4972685;28;20928;-70
2023/12/15 04:26:58;;;;;;;8.97;3.70;;;5.50;98.00;;;;;;4972664;28;20477;-70
2023/12/15 04:29:25;;;;;;;8.60;3.57;;;5.60;98.00;;;;;;4972779;28;20450;-70
2023/12/15 04:31:52;;;;;;;9.00;3.47;;;5.70;98.00;;;;;;4971568;28;20959;-70
2023/12/15 04:34:21;;;;;;;8.60;3.80;;;5.80;98.00;;;;;;4972826;28;20554;-70
2023/12/15 04:36:48;;;;;;;12.90;3.30;;;5.60;98.00;;;;;;4971770;28;20457;-71
2023/12/15 04:39:16;;;;;;;8.87;3.30;;;5.60;98.00;;;;;;4972526;28;20457;-70
2023/12/15 04:41:44;;;;;;;6.00;3.20;;;5.50;98.00;;;;;;4972538;28;20462;-69
2023/12/15 04:44:12;;;;;;;6.20;3.10;;;5.60;98.00;;;;;;4971389;28;20458;-69
2023/12/15 04:46:41;;;;;;;6.03;3.20;;;5.70;98.00;;;;;;4972790;28;20478;-70
2023/12/15 04:49:08;;;;;;;7.67;3.37;;;5.70;98.00;;;;;;4972568;28;20448;-70
2023/12/15 04:51:35;;;;;;;7.30;3.47;;;5.80;98.00;;;;;;4976222;28;20453;-70
2023/12/15 04:54:02;;;;;;;9.17;3.13;;;5.70;98.00;;;;;;4974704;28;20460;-70
2023/12/15 04:56:29;;;;;;;8.90;3.30;;;5.70;98.00;;;;;;4975570;28;20469;-70
2023/12/15 04:58:57;;;;;;;8.60;3.60;;;5.70;98.00;;;;;;4975576;28;20493;-70
2023/12/15 05:01:25;;;;;;;7.10;3.40;;;5.70;98.00;;;;;;4975690;28;20453;-70
2023/12/15 05:03:52;;;;;;;7.93;3.50;;;5.70;98.00;;;;;;4975483;28;20479;-71
2023/12/15 05:06:21;;;;;;;8.43;4.13;;;5.60;98.00;;;;;;4975675;28;21062;-70
2023/12/15 05:08:49;;;;;;;8.03;3.40;;;5.50;98.00;;;;;;4975874;28;20461;-70
2023/12/15 05:11:17;;;;;;;5.80;3.20;;;5.60;98.00;;;;;;4975905;28;20532;-71
2023/12/15 05:13:44;;;;;;;6.13;3.30;;;5.50;98.00;;;;;;4976042;28;20921;-70
2023/12/15 05:16:12;;;;;;;7.30;3.47;;;5.50;98.00;;;;;;4975459;28;20788;-70
2023/12/15 05:18:40;;;;;;;7.03;3.20;;;5.50;98.00;;;;;;4975849;28;20490;-70
2023/12/15 05:21:07;;;;;;;6.80;3.57;;;5.40;98.00;;;;;;4976021;28;20470;-71
2023/12/15 05:23:34;;;;;;;5.67;3.23;;;5.50;98.00;;;;;;4975438;28;20461;-69
2023/12/15 05:26:01;;;;;;;5.23;2.80;;;5.50;98.00;;;;;;4975432;28;20465;-70
2023/12/15 05:28:28;;;;;;;6.67;3.33;;;5.50;98.00;;;;;;4975920;28;20541;-70
2023/12/15 05:30:55;;;;;;;8.70;3.63;;;5.50;98.00;;;;;;4975434;28;20450;-70
2023/12/15 05:33:25;;;;;;;7.70;3.10;;;5.60;98.00;;;;;;4975353;28;20454;-70
2023/12/15 05:35:52;;;;;;;6.70;3.23;;;5.60;98.00;;;;;;4975458;28;20458;-70
2023/12/15 05:38:19;;;;;;;5.87;3.10;;;5.60;98.00;;;;;;4975219;28;20485;-70
2023/12/15 05:40:46;;;;;;;5.90;2.80;;;5.60;98.00;;;;;;4975290;28;20843;-70
2023/12/15 05:43:14;;;;;;;6.00;3.43;;;5.60;98.00;;;;;;4974744;28;20461;-71
2023/12/15 05:45:41;;;;;;;7.30;3.07;;;5.60;98.00;;;;;;4974346;28;20502;-70
2023/12/15 05:48:08;;;;;;;7.53;3.30;;;5.70;98.00;;;;;;4974530;28;21111;-69
2023/12/15 05:50:36;;;;;;;7.80;3.33;;;5.70;98.00;;;;;;4973964;28;20474;-70
2023/12/15 05:53:03;;;;;;;8.60;4.13;;;5.70;98.00;;;;;;4974959;28;20484;-70
2023/12/15 05:55:30;;;;;;;4.90;3.10;;;5.70;98.00;;;;;;4973276;28;20468;-70
2023/12/15 05:57:57;;;;;;;6.53;3.10;;;5.70;98.00;;;;;;4974790;28;20485;-69
2023/12/15 06:00:24;;;;;;;8.27;3.10;;;5.70;98.00;;;;;;4973177;28;20927;-70
2023/12/15 06:02:52;;;;;;;5.50;2.63;;;5.70;98.00;;;;;;4974234;28;20467;-70
2023/12/15 06:05:19;;;;;;;5.70;3.07;;;5.80;98.00;;;;;;4973316;28;20458;-69
2023/12/15 06:07:47;;;;;;;7.67;2.97;;;5.70;98.00;;;;;;4974621;28;20520;-70
2023/12/15 06:10:14;;;;;;;5.87;3.00;;;5.70;98.00;;;;;;4974703;28;20514;-69
2023/12/15 06:12:41;;;;;;;5.10;2.90;;;5.60;98.00;;;;;;4974502;28;20455;-70
2023/12/15 06:15:10;;;;;;;5.33;2.83;;;5.60;98.00;;;;;;4974173;28;20462;-70
2023/12/15 06:17:37;;;;;;;5.93;2.93;;;5.70;98.00;;;;;;4974469;28;21227;-71
2023/12/15 06:20:07;;;;;;;5.77;3.13;;;5.70;98.00;;;;;;4974577;28;20466;-70
2023/12/15 06:22:34;;;;;;;6.17;2.53;;;5.60;98.00;;;;;;4973395;28;20455;-70
2023/12/15 06:25:02;;;;;;;9.30;2.93;;;5.50;98.00;;;;;;4974438;28;20470;-69
2023/12/15 06:27:29;;;;;;;8.30;3.90;;;5.50;98.00;;;;;;4974452;28;20469;-70
2023/12/15 06:29:57;;;;;;;8.83;3.70;;;5.50;98.00;;;;;;4974206;28;20454;-70
2023/12/15 06:32:24;;;;;;;7.10;3.50;;;5.60;98.00;;;;;;4974275;28;20538;-70
2023/12/15 06:34:52;;;;;;;8.40;3.60;;;5.60;98.00;;;;;;4974086;28;20459;-70
2023/12/15 06:37:19;;;;;;;5.60;3.20;;;5.60;98.00;;;;;;4974346;28;20463;-71
2023/12/15 06:39:47;;;;;;;6.03;3.57;;;5.70;98.00;;;;;;4974162;28;20902;-71
2023/12/15 06:42:15;;;;;;;7.93;3.53;;;5.70;98.00;;;;;;4974193;28;21570;-70
2023/12/15 06:44:42;;;;;;;11.60;4.07;;;5.70;98.00;;;;;;4973614;28;20456;-70
2023/12/15 06:47:10;;;;;;;5.67;2.90;;;5.70;98.00;;;;;;4973999;28;20459;-70
2023/12/15 06:49:37;;;;;;;6.77;2.83;;;5.70;98.00;;;;;;4974054;28;20470;-71
2023/12/15 06:52:05;;;;;;;4.30;2.60;;;5.70;98.00;;;;;;4974098;28;20541;-70
2023/12/15 06:54:32;;;;;;;6.70;2.97;;;5.70;98.00;;;;;;4973258;28;20468;-70
2023/12/15 06:57:00;;;;;;;6.47;3.07;;;5.90;98.00;;;;;;4973797;28;20460;-70
2023/12/15 06:59:29;;;;;;;7.03;3.47;;;5.80;98.00;;;;;;4973824;28;20514;-69
2023/12/15 07:01:56;;;;;;;10.40;3.30;;;5.70;98.00;;;;;;4973938;28;20986;-78
2023/12/15 07:04:25;;;;;;;7.70;3.43;;;5.60;98.00;;;;;;4974065;28;20456;-78
2023/12/15 07:06:53;;;;;;;10.33;3.90;;;5.60;98.00;;;;;;4973782;28;20812;-78
2023/12/15 07:09:22;;;;;;;7.80;3.60;;;5.50;98.00;;;;;;4973951;28;20675;-78
2023/12/15 07:11:49;;;;;;;14.43;4.40;;;5.50;98.00;;;;;;4972503;28;20549;-78
2023/12/15 07:14:16;;;;;;;10.97;4.23;;;5.50;98.00;;;;;;4973909;28;20463;-78
2023/12/15 07:16:45;;;;;;;9.83;4.03;;;5.50;98.00;;;;;;4973728;28;20474;-76
2023/12/15 07:19:12;;;;;;;8.60;4.23;;;5.60;98.00;;;;;;4973864;28;20489;-77
2023/12/15 07:21:39;;;;;;;8.93;4.10;;;5.50;98.00;;;;;;4973836;28;20450;-77
2023/12/15 07:24:06;;;;;;;6.27;3.53;;;5.60;98.00;;;;;;4973502;28;20940;-76
2023/12/15 07:26:42;;;;;;;5.93;3.30;;;5.60;98.00;;;;;;4973935;28;20466;-76
2023/12/15 07:29:09;;;;;;;10.00;3.90;;;5.60;98.00;;;;;;4973634;28;20476;-77
2023/12/15 07:31:40;;;;;;;11.87;4.90;;;5.80;98.00;;;;;;4973682;28;20954;-77
2023/12/15 07:34:08;;;;;;;8.80;4.00;;;5.70;98.00;;;;;;4972919;28;20800;-76
2023/12/15 07:36:35;;;;;;;12.17;4.60;;;5.70;98.00;;;;;;4974024;28;20533;-76
2023/12/15 07:39:02;;;;;;;8.67;3.83;;;5.80;98.00;;;;;;4973646;28;20495;-77
2023/12/15 07:41:29;;;;;;;8.90;4.27;;;5.90;98.00;;;;;;4974159;28;20870;-76
2023/12/15 07:43:56;;;;;;;9.20;3.67;;;5.90;98.00;;;;;;4973832;28;20494;-77
2023/12/15 07:46:24;;;;;;;11.13;3.87;;;5.90;98.00;;;;;;4973189;28;20449;-78
2023/12/15 07:48:51;;;;;;;10.33;3.13;;;6.00;98.00;;;;;;4972195;28;21025;-77
2023/12/15 07:51:20;;;;;;;5.97;3.10;;;6.00;98.00;;;;;;4973742;28;20493;-78
2023/12/15 07:53:48;;;;;;;9.07;4.27;;;6.00;98.00;;;;;;4973164;28;20462;-77
2023/12/15 07:56:22;;;;;;;7.57;4.00;;;6.20;98.00;;;;;;4973993;28;20458;-78
2023/12/15 07:58:54;;;;;;;8.70;4.40;;;6.40;98.00;;;;;;4972921;28;20484;-77
2023/12/15 08:01:23;;;;;;;9.67;4.20;;;6.30;98.00;;;;;;4973125;28;20978;-79
2023/12/15 08:03:50;;;;;;;9.33;4.57;;;6.10;98.00;;;;;;4973159;28;20471;-77
2023/12/15 08:06:19;;;;;;;9.67;4.00;;;6.00;98.00;;;;;;4972970;28;20501;-77
2023/12/15 08:08:48;;;;;;;9.57;4.67;;;6.20;98.00;;;;;;4972808;28;20464;-76
2023/12/15 08:11:15;;;;;;;13.83;5.50;;;6.10;98.00;;;;;;4972983;28;20453;-77
2023/12/15 08:13:42;;;;;;;12.13;5.10;;;5.90;98.00;;;;;;4972852;28;20459;-78
2023/12/15 08:16:10;;;;;;;9.30;4.30;;;5.90;98.00;;;;;;4972604;28;20453;-78
2023/12/15 08:18:37;;;;;;;9.50;4.10;;;5.90;98.00;;;;;;4972770;28;20569;-77
2023/12/15 08:21:08;;;;;;;8.50;4.20;;;6.00;98.00;;;;;;4972862;28;20451;-77
2023/12/15 08:23:36;;;;;;;9.30;4.20;;;6.00;98.00;;;;;;4972864;28;20459;-77
2023/12/15 08:26:03;;;;;;;9.83;4.80;;;6.10;98.00;;;;;;4976241;28;20474;-77
2023/12/15 08:28:32;;;;;;;10.10;4.60;;;6.10;98.00;;;;;;4976760;28;20459;-76
2023/12/15 08:30:59;;;;;;;10.10;3.97;;;6.10;98.00;;;;;;4975843;28;20470;-78
2023/12/15 08:33:27;;;;;;;9.40;4.43;;;6.20;98.00;;;;;;4976555;28;20495;-78
2023/12/15 08:35:54;;;;;;;8.50;4.43;;;6.40;98.00;;;;;;4976426;28;20445;-78
2023/12/15 08:38:24;;;;;;;8.77;4.30;;;6.50;98.00;;;;;;4976394;28;20476;-78
2023/12/15 08:40:54;;;;;;;7.73;3.70;;;6.40;98.00;;;;;;4974726;28;20498;-77
2023/12/15 08:43:22;;;;;;;11.37;4.80;;;6.50;98.00;;;;;;4974871;28;20538;-77
2023/12/15 08:45:49;;;;;;;9.80;5.27;;;6.60;98.00;;;;;;4975243;28;20473;-77
2023/12/15 08:50:58;;;;;;;7.20;3.93;;;6.70;98.00;;;;;;4975612;28;20468;-77
2023/12/15 08:53:25;;;;;;;8.20;4.07;;;6.70;98.00;;;;;;4975977;28;20455;-77
2023/12/15 08:55:53;;;;;;;7.53;3.90;;;6.80;98.00;;;;;;4976104;28;20468;-76
2023/12/15 08:58:21;;;;;;;6.93;3.73;;;7.00;98.00;;;;;;4975981;28;20456;-76
2023/12/15 09:00:49;;;;;;;8.40;3.73;;;6.80;98.00;;;;;;4976104;28;20919;-77
2023/12/15 09:03:17;;;;;;;8.43;3.93;;;6.80;98.00;;;;;;4976393;28;20814;-77
2023/12/15 09:05:44;;;;;;;7.47;3.83;;;6.80;98.00;;;;;;4975792;28;20458;-78
2023/12/15 09:08:12;;;;;;;10.97;4.17;;;6.80;98.00;;;;;;4975114;28;20456;-79
2023/12/15 09:10:43;;;;;;;11.03;3.93;;;6.80;98.00;;;;;;4975951;28;20555;-71
2023/12/15 09:13:12;;;;;;;7.33;3.50;;;6.80;98.00;;;;;;4974643;28;20457;-72
2023/12/15 09:15:43;;;;;;;8.10;4.07;;;6.90;98.00;;;;;;4975632;28;20842;-75
2023/12/15 09:18:10;;;;;;;7.80;3.90;;;7.00;98.00;;;;;;4975418;28;21142;-75
2023/12/15 09:20:37;;;;;;;9.07;4.60;;;7.10;98.00;;;;;;4975438;28;20464;-74
2023/12/15 09:23:09;;;;;;;10.47;4.33;;;7.10;98.00;;;;;;4975620;28;20541;-75
2023/12/15 09:25:36;;;;;;;10.40;4.17;;;7.10;98.00;;;;;;4973861;28;20518;-75
2023/12/15 09:28:05;;;;;;;12.23;4.87;;;7.10;98.00;;;;;;4974049;28;20456;-76
2023/12/15 09:30:33;;;;;;;11.00;4.93;;;7.00;98.00;;;;;;4975267;28;20857;-74
2023/12/15 09:33:00;;;;;;;9.40;4.13;;;7.10;98.00;;;;;;4975115;28;20447;-74
2023/12/15 09:35:27;;;;;;;11.13;4.90;;;7.00;98.00;;;;;;4973888;28;20461;-75
2023/12/15 09:37:54;;;;;;;11.40;4.37;;;7.00;98.00;;;;;;4974712;28;20458;-77
2023/12/15 09:40:24;;;;;;;10.70;4.77;;;6.80;98.00;;;;;;4974086;28;20491;-76
2023/12/15 09:42:51;;;;;;;15.60;4.07;;;6.70;98.00;;;;;;4975622;28;20626;-78
2023/12/15 09:45:18;;;;;;;11.77;5.20;;;6.60;98.00;;;;;;4975566;28;20866;-76
2023/12/15 09:47:48;;;;;;;9.50;4.47;;;6.60;98.00;;;;;;4976166;28;20460;-74
2023/12/15 09:50:17;;;;;;;12.80;5.30;;;6.50;98.00;;;;;;4975639;28;20464;-73
2023/12/15 09:52:46;;;;;;;12.10;5.00;;;6.50;98.00;;;;;;4975791;28;20548;-76
2023/12/15 09:55:13;;;;;;;9.10;4.50;;;6.60;98.00;;;;;;4984702;28;20449;-74
2023/12/15 09:57:41;;;;;;;15.23;5.53;;;6.80;98.00;;;;;;4973323;28;20453;-74
2023/12/15 10:00:09;;;;;;;8.87;4.67;;;6.90;98.00;;;;;;4975335;28;20491;-76
2023/12/15 10:02:36;;;;;;;9.67;5.00;;;7.00;98.00;;;;;;4975308;28;20463;-75
2023/12/15 10:05:06;;;;;;;9.17;4.50;;;7.10;98.00;;;;;;4975234;28;20510;-74
2023/12/15 10:07:33;;;;;;;11.03;4.83;;;7.10;98.00;;;;;;4974724;28;20462;-75
2023/12/15 10:10:02;;;;;;;9.23;4.33;;;7.20;98.00;;;;;;4973920;28;20453;-75
2023/12/15 10:12:31;;;;;;;8.53;4.30;;;7.10;98.00;;;;;;4975580;28;20466;-74
2023/12/15 10:14:58;;;;;;;11.80;4.70;;;7.20;98.00;;;;;;4973820;28;20457;-75
2023/12/15 10:17:26;;;;;;;13.60;5.10;;;7.20;98.00;;;;;;4974289;28;20461;-74
2023/12/15 10:20:08;;;;;;;13.03;4.40;;;7.30;98.00;;;;;;4972206;28;21031;-76
2023/12/15 10:22:36;;;;;;;9.47;4.77;;;7.40;98.00;;;;;;4975439;28;20459;-74
2023/12/15 10:25:16;;;;;;;11.60;4.73;;;7.50;98.00;;;;;;4972880;28;20463;-73
2023/12/15 10:27:43;;;;;;;9.47;4.90;;;7.50;98.00;;;;;;4972665;28;20501;-74
2023/12/15 10:30:11;;;;;;;9.50;4.60;;;7.50;98.00;;;;;;4973787;28;20456;-76
2023/12/15 10:32:38;;;;;;;10.63;4.70;;;7.50;98.00;;;;;;4973676;28;20468;-77
2023/12/15 10:35:09;;;;;;;11.00;4.90;;;7.60;98.00;;;;;;4974255;28;20468;-75
2023/12/15 10:37:36;;;;;;;9.17;4.60;;;7.70;98.00;;;;;;4974697;28;20459;-77
2023/12/15 10:40:04;;;;;;;12.63;5.67;;;7.80;98.00;;;;;;4973131;28;20550;-77
2023/12/15 10:42:33;;;;;;;14.93;5.57;;;7.70;98.00;;;;;;4974567;28;20456;-76
2023/12/15 10:45:02;;;;;;;12.60;5.00;;;7.70;98.00;;;;;;4974002;28;20460;-77
2023/12/15 10:47:34;;;;;;;10.80;5.00;;;7.70;98.00;;;;;;4973587;28;20464;-77
2023/12/15 10:50:02;;;;;;;9.40;4.87;;;7.70;98.00;;;;;;4974669;28;20892;-77
2023/12/15 10:52:33;;;;;;;14.30;5.07;;;7.70;98.00;;;;;;4975011;28;20467;-75
2023/12/15 10:55:03;;;;;;;15.07;5.90;;;7.80;98.00;;;;;;4974646;28;20465;-74
2023/12/15 10:57:31;;;;;;;14.23;5.50;;;7.80;98.00;;;;;;4973958;28;20467;-74
2023/12/15 10:59:58;;;;;;;14.00;6.50;;;7.90;98.00;;;;;;4973552;28;20539;-78
2023/12/15 11:02:28;;;;;;;11.43;5.73;;;7.80;98.00;;;;;;4974265;28;20445;-77
2023/12/15 11:04:56;;;;;;;14.03;6.07;;;7.80;98.00;;;;;;4972264;28;20502;-79
2023/12/15 11:07:24;;;;;;;12.20;5.17;;;7.80;98.00;;;;;;4973583;28;20451;-78
2023/12/15 11:09:54;;;;;;;13.27;5.27;;;7.90;98.00;;;;;;4974164;28;20459;-77
2023/12/15 11:12:39;;;;;;;16.20;5.73;;;8.10;98.00;;;;;;4973427;28;20452;-71
2023/12/15 11:15:10;;;;;;;12.70;5.60;;;8.20;98.00;;;;;;4973258;28;20989;-70
2023/12/15 11:17:40;;;;;;;10.97;5.23;;;8.30;98.00;;;;;;4973039;28;20487;-71
2023/12/15 11:20:34;;;;;;;12.97;5.20;;;8.30;98.00;;;;;;4973161;28;20517;-75
2023/12/15 11:23:08;;;;;;;13.87;5.50;;;8.30;98.00;;;;;;4973088;28;20470;-73
2023/12/15 11:25:39;;;;;;;10.37;5.00;;;8.30;98.00;;;;;;4973504;28;20450;-76
2023/12/15 11:28:09;;;;;;;10.17;5.00;;;8.30;98.00;;;;;;4956165;28;20510;-74
2023/12/15 11:30:37;;;;;;;9.73;4.83;;;8.30;98.00;;;;;;4973003;28;20449;-77
2023/12/15 11:33:42;;;;;;;12.93;4.70;;;8.50;98.00;;;;;;4972709;28;20949;-75
2023/12/15 11:36:10;;;;;;;9.80;4.43;;;8.60;98.00;;;;;;4973122;28;20458;-77
2023/12/15 11:38:39;;;;;;;9.93;4.97;;;8.40;98.00;;;;;;5156001;23;20454;-76
2023/12/15 11:41:08;;;;;;;11.57;5.00;;;8.30;98.00;;;;;;4990593;28;20511;-75
2023/12/15 11:43:37;;;;;;;10.17;4.97;;;8.20;98.00;;;;;;4991400;28;20461;-73
2023/12/15 11:46:05;;;;;;;10.30;4.43;;;8.00;98.00;;;;;;4991605;28;20456;-76
2023/12/15 11:48:34;;;;;;;12.30;4.40;;;8.10;98.00;;;;;;4991228;28;20468;-74
2023/12/15 11:51:02;;;;;;;16.47;5.30;;;8.10;98.00;;;;;;4989686;28;20467;-75
2023/12/15 11:53:32;;;;;;;12.37;5.00;;;8.10;98.00;;;;;;4991214;28;20491;-78
2023/12/15 11:56:01;;;;;;;10.80;4.57;;;8.20;98.00;;;;;;4991538;28;20459;-73
2023/12/15 11:58:30;;;;;;;10.47;4.60;;;8.10;98.00;;;;;;4992576;28;20547;-73
2023/12/15 12:00:57;;;;;;;9.93;4.90;;;8.00;98.00;;;;;;4995651;28;20487;-73
2023/12/15 12:03:25;;;;;;;11.90;4.70;;;8.00;98.00;;;;;;4995663;28;20470;-74
2023/12/15 12:05:54;;;;;;;10.77;5.10;;;8.10;98.00;;;;;;4995434;28;20450;-76
2023/12/15 12:08:22;;;;;;;13.60;4.57;;;8.10;98.00;;;;;;4995525;28;20563;-74
2023/12/15 12:10:53;;;;;;;10.43;4.57;;;8.20;98.00;;;;;;4995201;28;20539;-74
2023/12/15 12:13:21;;;;;;;12.70;5.30;;;8.30;98.00;;;;;;4995742;28;20529;-76
2023/12/15 12:15:54;;;;;;;10.80;5.40;;;8.30;98.00;;;;;;4995406;28;20996;-76
2023/12/15 12:18:21;;;;;;;9.90;4.07;;;8.20;98.00;;;;;;4995418;28;20462;-73
2023/12/15 12:20:49;;;;;;;8.90;4.00;;;8.30;98.00;;;;;;4994974;28;20491;-77
2023/12/15 12:23:17;;;;;;;10.20;4.40;;;8.30;98.00;;;;;;4994031;28;20448;-74
2023/12/15 12:25:47;;;;;;;9.20;4.40;;;8.20;98.00;;;;;;4995381;28;20549;-74
2023/12/15 12:28:16;;;;;;;8.60;4.20;;;8.20;98.00;;;;;;4995249;28;20465;-77
2023/12/15 12:30:43;;;;;;;12.47;4.97;;;8.20;98.00;;;;;;4995224;28;20533;-76
2023/12/15 12:33:12;;;;;;;9.40;4.57;;;8.10;98.00;;;;;;4995171;28;20799;-75
2023/12/15 12:35:39;;;;;;;8.53;4.07;;;8.10;98.00;;;;;;4995189;28;20898;-75
2023/12/15 12:38:07;;;;;;;9.73;3.87;;;8.10;98.00;;;;;;5011260;28;20464;-73
2023/12/15 12:40:34;;;;;;;10.00;4.30;;;8.10;98.00;;;;;;5014176;28;21045;-75
2023/12/15 12:43:01;;;;;;;8.37;4.10;;;8.10;98.00;;;;;;5015408;28;20451;-74
2023/12/15 12:45:29;;;;;;;9.93;4.40;;;8.10;98.00;;;;;;5015104;28;20497;-72
2023/12/15 12:47:56;;;;;;;8.17;3.87;;;8.00;98.00;;;;;;5015163;28;20554;-72
2023/12/15 12:50:26;;;;;;;10.90;4.20;;;8.00;98.00;;;;;;5015338;28;20516;-72
2023/12/15 12:52:53;;;;;;;8.93;4.23;;;8.10;98.00;;;;;;5014830;28;20467;-71
2023/12/15 12:55:21;;;;;;;8.47;4.27;;;8.00;98.00;;;;;;5014914;28;20531;-72
2023/12/15 12:57:48;;;;;;;8.33;4.43;;;8.00;98.00;;;;;;4997561;28;20458;-72
2023/12/15 13:00:17;;;;;;;10.83;4.17;;;8.20;98.00;;;;;;5014891;28;20479;-73